Hauptseite
METAR-TAF:

METAR-TAF

Flughäfen :

Bagdad, Irak

Flughafen Bagdad

Breite: 33-15-45N, Länge: 44-14-04E, Höhe: 35 m

Beobachtung

Neuester Wetterbericht von vor 23 Minuten, um 05:00 UTC
Wind 7 kt aus West/Nordwest
Temperatur 15°C
Luftfeuchtigkeit 63%
Luftdruck 1016 hPa
Sichtweite 10 km oder mehr
keine Wolken unter 1500 m und keine Kumulonimbus oder Gewitterwolken

METAR: ORBI 260500Z 30007KT CAVOK 15/08 Q1016 NOSIG

Zeit: 08:23 (05:23 UTC)

Prognose

Neuester Wetterbericht von vor 7 Stunden und 23 Minuten, um 22:00 UTC
Gültige Prognose vom 26 um 00 UTC bis 26 um 24 UTC
Wind 6 kt aus West/Nordwest
Sichtweite 10 km oder mehr
keine Wolken unter 1500 m und keine Kumulonimbus oder Gewitterwolken

TAF: ORBI 252200Z 2600/2624 30006KT CAVOK

Wetterbeobachtungen und Prognosen von mehr als 4000 Flughäfen (METAR und TAF Bericht).

Die verfügbaren Stationen werden durch gelbe und rote Markierungen auf der Karte dargestellt.

Führen Sie die Maus auf sie, um den Namen der Station zu sehen.

Darauf klicken, um die Beobachtung von Wetterbeobachtungen und Prognosen zu sehen.

Um die Karte zu ändern : klicken Sie auf den grünen Tasten mit einem schwarzen Kreuz Zum Vergrößern, auf den grünen Button mit einem Gedankenstrich zu verkleinern, oder auf die grünen Pfeile für benachbarte Karten.


METAR-TAF: